Roanoke Regional Airport

Airport
ICAO code: 
KROA
Summary
ICAO Region: 
NAM
Territory: 
Location: 
Roanoke, Virginia,
Coordinates: 
Aerial View: 
37° 19' 31.001" N, 79° 58' 31.001" W
Metar
Observation
KROA 040554Z 00000KT 10SM CLR 07/02 A3004 RMK AO2 SLP171 T00720022 10144 20072 58001
Station
Roanoke, Roanoke Regional Airport
Date/Time
2021-12-04 05:54:00
Wind direction
Wind speed
00 kts
Lowest cloud amount
n/a
Temperature
7.2°C
Dew point
2.2°C
Humidity
70%
Weather condition
n/a

Description

Roanoke Regional Airport, also known as Woodrum Field, is a regional airport located 6 km northwest of the central business district of Roanoke, a city in Roanoke County, Virginia.

Climatology

Humid “subtropical” climate (Köppen climate classification Cfa) - characterized by hot, humid summers and cool winters. Significant amounts of precipitation occur in all seasons in most areas. Winter rainfall (and sometimes snowfall) is associated with large storms that the westerlies steer from west to east. Most summer rainfall occurs during thunderstorms and occasional tropical storms (hurricanes).

Runways

Designator Length Width Surface Rops
15/33 1771 46 ASP Yes/Yes
6/24 2073 46 ASP Yes/Yes
Airport map: 
Aerial View: 

SKYbrary Partners:

Safety knowledge contributed by: